createdAt,value
2022-10-11T00:02:18.401Z,99.10
2022-10-11T00:04:50.563Z,99.10
2022-10-11T00:07:18.680Z,99.00
2022-10-11T00:09:46.197Z,99.10
2022-10-11T00:12:12.996Z,99.10
2022-10-11T00:14:39.831Z,99.00
2022-10-11T00:17:08.005Z,99.00
2022-10-11T00:19:34.831Z,98.90
2022-10-11T00:22:01.695Z,99.00
2022-10-11T00:24:28.528Z,99.10
2022-10-11T00:26:55.332Z,99.10
2022-10-11T00:29:22.116Z,99.10
2022-10-11T00:31:48.913Z,99.10
2022-10-11T00:34:18.101Z,99.00
2022-10-11T00:36:45.876Z,99.10
2022-10-11T00:39:14.471Z,99.10
2022-10-11T00:41:41.578Z,99.10
2022-10-11T00:44:19.051Z,99.10
2022-10-11T00:46:55.976Z,99.10
2022-10-11T00:49:43.145Z,99.10
2022-10-11T00:52:31.178Z,99.10
2022-10-11T00:55:02.755Z,99.20
2022-10-11T00:57:33.212Z,99.10
2022-10-11T01:00:00.542Z,99.20
2022-10-11T01:02:28.182Z,99.20
2022-10-11T01:05:11.651Z,99.20
2022-10-11T01:07:43.178Z,99.20
2022-10-11T01:10:10.311Z,99.30
2022-10-11T01:12:48.632Z,99.30
2022-10-11T01:15:25.857Z,99.30
2022-10-11T01:18:07.862Z,99.30
2022-10-11T01:21:00.558Z,99.30
2022-10-11T01:23:59.486Z,99.30
2022-10-11T01:27:07.234Z,99.40
2022-10-11T01:29:53.772Z,99.50
2022-10-11T01:32:32.192Z,99.60
2022-10-11T01:35:07.513Z,99.60
2022-10-11T01:37:43.346Z,99.60
2022-10-11T01:40:15.732Z,99.70
2022-10-11T01:42:43.894Z,99.70
2022-10-11T01:45:15.561Z,99.50
2022-10-11T01:47:42.645Z,99.60
2022-10-11T01:50:40.419Z,99.60
2022-10-11T01:53:21.531Z,99.50
2022-10-11T01:55:57.465Z,99.60
2022-10-11T01:59:07.410Z,99.60
2022-10-11T02:01:59.809Z,99.60
2022-10-11T02:04:48.439Z,99.60
2022-10-11T02:07:31.599Z,99.70
2022-10-11T02:10:11.597Z,99.70
2022-10-11T02:12:44.076Z,99.80
2022-10-11T02:15:13.887Z,99.80
2022-10-11T02:17:55.987Z,99.90
2022-10-11T02:20:26.458Z,99.90
2022-10-11T02:23:00.001Z,99.90
2022-10-11T02:25:30.205Z,99.90
2022-10-11T02:28:01.848Z,99.90
2022-10-11T02:30:31.024Z,99.90
2022-10-11T02:32:58.880Z,99.90
2022-10-11T02:35:29.489Z,99.90
2022-10-11T02:38:14.281Z,99.90
2022-10-11T02:40:44.993Z,99.90
2022-10-11T02:43:23.826Z,99.90
2022-10-11T02:45:55.950Z,99.90
2022-10-11T02:48:25.178Z,99.90
2022-10-11T02:50:53.571Z,99.90
2022-10-11T02:53:21.798Z,99.90
2022-10-11T02:55:50.099Z,99.90
2022-10-11T02:58:17.025Z,99.90
2022-10-11T03:00:44.074Z,99.90
2022-10-11T03:03:10.878Z,99.90
2022-10-11T03:05:40.794Z,99.90
2022-10-11T03:08:12.458Z,99.90
2022-10-11T03:10:39.883Z,99.90
2022-10-11T03:13:06.726Z,99.90
2022-10-11T03:15:34.094Z,99.90
2022-10-11T03:18:00.906Z,99.90
2022-10-11T03:20:27.783Z,99.90
2022-10-11T03:22:54.543Z,99.90
2022-10-11T03:25:21.354Z,99.90
2022-10-11T03:27:48.153Z,99.90
2022-10-11T03:30:18.286Z,99.90
2022-10-11T03:32:46.079Z,99.90
2022-10-11T03:35:12.954Z,99.90
2022-10-11T03:37:39.822Z,99.90
2022-10-11T03:40:08.395Z,99.90
2022-10-11T03:42:36.181Z,99.90
2022-10-11T03:45:07.996Z,99.90
2022-10-11T03:47:36.264Z,99.90
2022-10-11T03:50:03.955Z,99.90
2022-10-11T03:52:30.769Z,99.90
2022-10-11T03:54:57.957Z,99.90
2022-10-11T03:57:24.853Z,99.90
2022-10-11T03:59:51.660Z,99.90
2022-10-11T04:02:18.525Z,99.90
2022-10-11T04:04:45.857Z,99.90
2022-10-11T04:07:12.685Z,99.90
2022-10-11T04:09:39.520Z,99.90
2022-10-11T04:12:06.598Z,99.90
2022-10-11T04:14:33.515Z,99.90
2022-10-11T04:17:00.728Z,99.90
2022-10-11T04:19:27.831Z,99.90
2022-10-11T04:21:54.604Z,99.90
2022-10-11T04:24:21.496Z,99.90
2022-10-11T04:26:48.619Z,99.90
2022-10-11T04:29:15.445Z,99.90
2022-10-11T04:31:42.429Z,99.90
2022-10-11T04:34:09.210Z,99.90
2022-10-11T04:36:36.470Z,99.90
2022-10-11T04:39:03.822Z,99.90
2022-10-11T04:41:30.650Z,99.90
2022-10-11T04:43:57.556Z,99.90
2022-10-11T04:46:25.040Z,99.90
2022-10-11T04:48:51.995Z,99.90
2022-10-11T04:51:19.345Z,99.90
2022-10-11T04:53:46.293Z,99.90
2022-10-11T04:56:15.006Z,99.90
2022-10-11T04:58:41.992Z,99.90
2022-10-11T05:01:10.502Z,99.90
2022-10-11T05:03:37.990Z,99.90
2022-10-11T05:06:06.165Z,99.90
2022-10-11T05:08:33.638Z,99.90
2022-10-11T05:11:06.219Z,99.90
2022-10-11T05:13:34.655Z,99.90
2022-10-11T05:16:03.308Z,99.90
2022-10-11T05:18:32.082Z,99.90
2022-10-11T05:21:04.490Z,99.90
2022-10-11T05:23:32.778Z,99.90
2022-10-11T05:26:00.476Z,99.90
2022-10-11T05:28:28.092Z,99.90
2022-10-11T05:30:55.687Z,99.90
2022-10-11T05:33:23.167Z,99.90
2022-10-11T05:35:50.000Z,99.90
2022-10-11T05:38:17.172Z,99.90
2022-10-11T05:40:43.992Z,99.90
2022-10-11T05:43:10.817Z,99.90
2022-10-11T05:45:39.238Z,99.90
2022-10-11T05:48:06.618Z,99.90
2022-10-11T05:50:33.717Z,99.90
2022-10-11T05:53:00.925Z,99.90
2022-10-11T05:55:28.001Z,99.90
2022-10-11T05:57:56.740Z,99.90
2022-10-11T06:00:24.749Z,99.90
2022-10-11T06:02:51.520Z,99.90
2022-10-11T06:05:18.752Z,99.90
2022-10-11T06:07:45.564Z,99.90
2022-10-11T06:10:12.410Z,99.90
2022-10-11T06:12:39.223Z,99.90
2022-10-11T06:15:07.499Z,99.90
2022-10-11T06:17:34.625Z,99.90
2022-10-11T06:20:01.439Z,99.90
2022-10-11T06:22:28.274Z,99.90
2022-10-11T06:24:55.072Z,99.90
2022-10-11T06:27:21.851Z,99.90
2022-10-11T06:29:49.126Z,99.90
2022-10-11T06:32:15.880Z,99.90
2022-10-11T06:34:42.662Z,99.90
2022-10-11T06:37:09.462Z,99.90
2022-10-11T06:39:36.214Z,99.90
2022-10-11T06:42:03.058Z,99.90
2022-10-11T06:44:30.075Z,99.90
2022-10-11T06:46:56.811Z,99.90
2022-10-11T06:49:23.803Z,99.90
2022-10-11T06:51:51.310Z,99.90
2022-10-11T06:54:18.195Z,99.90
2022-10-11T06:56:45.761Z,99.90
2022-10-11T06:59:13.449Z,99.90
2022-10-11T07:01:40.674Z,99.90
2022-10-11T07:04:08.356Z,99.90
2022-10-11T07:06:38.844Z,99.90
2022-10-11T07:09:06.082Z,99.90
2022-10-11T07:11:33.255Z,99.90
2022-10-11T07:14:02.607Z,99.90
2022-10-11T07:16:29.432Z,99.90
2022-10-11T07:19:01.439Z,99.90
2022-10-11T07:21:30.450Z,99.90
2022-10-11T07:23:57.414Z,99.90
2022-10-11T07:26:24.217Z,99.90
2022-10-11T07:28:51.525Z,99.90
2022-10-11T07:31:22.455Z,99.90
2022-10-11T07:33:49.316Z,99.90
2022-10-11T07:36:16.430Z,99.90
2022-10-11T07:38:45.006Z,99.90
2022-10-11T07:41:12.107Z,99.90
2022-10-11T07:43:39.119Z,99.90
2022-10-11T07:46:07.052Z,99.90
2022-10-11T07:48:35.626Z,99.90
2022-10-11T07:51:14.695Z,99.90
2022-10-11T07:53:43.764Z,99.90
2022-10-11T07:56:12.617Z,99.90
2022-10-11T07:58:40.579Z,99.90
2022-10-11T08:01:08.709Z,99.90
2022-10-11T08:03:36.487Z,99.90
2022-10-11T08:06:06.330Z,99.90
2022-10-11T08:08:33.384Z,99.90
2022-10-11T08:11:00.988Z,99.90
2022-10-11T08:13:28.116Z,99.90
2022-10-11T08:15:55.197Z,99.90
2022-10-11T08:18:22.051Z,99.90
2022-10-11T08:20:49.321Z,99.90
2022-10-11T08:23:17.392Z,99.90
2022-10-11T08:25:46.382Z,99.90
2022-10-11T08:28:17.100Z,99.90
2022-10-11T08:30:52.310Z,99.90
2022-10-11T08:33:21.342Z,99.90
2022-10-11T08:35:50.273Z,99.90
2022-10-11T08:38:18.057Z,99.90
2022-10-11T08:40:48.037Z,99.90
2022-10-11T08:43:54.510Z,99.90
2022-10-11T08:46:28.992Z,99.90
2022-10-11T08:48:55.887Z,99.90
2022-10-11T08:51:31.280Z,99.90
2022-10-11T08:54:13.922Z,99.90
2022-10-11T08:56:43.323Z,99.90
2022-10-11T08:59:13.081Z,99.90
2022-10-11T09:01:47.710Z,99.90
2022-10-11T09:04:16.150Z,99.90
2022-10-11T09:07:01.354Z,99.90
2022-10-11T09:09:55.698Z,99.90
2022-10-11T09:12:53.706Z,99.90
2022-10-11T09:15:32.676Z,99.90
2022-10-11T09:18:28.483Z,99.90
2022-10-11T09:21:09.877Z,99.90
2022-10-11T09:23:41.849Z,99.90
2022-10-11T09:26:17.002Z,99.90
2022-10-11T09:29:06.506Z,99.90
2022-10-11T09:31:33.464Z,99.90
2022-10-11T09:34:10.338Z,99.90
2022-10-11T09:36:44.952Z,99.90
2022-10-11T09:39:23.696Z,99.90
2022-10-11T09:42:00.133Z,99.90
2022-10-11T09:44:33.984Z,99.90
2022-10-11T09:47:00.836Z,99.90
2022-10-11T09:50:07.332Z,99.90
2022-10-11T09:52:34.432Z,99.90
2022-10-11T09:55:03.009Z,99.90
2022-10-11T09:57:35.952Z,99.90
2022-10-11T10:00:18.772Z,99.90
2022-10-11T10:02:57.137Z,99.90
2022-10-11T10:05:26.489Z,99.90
2022-10-11T10:08:11.657Z,99.90
2022-10-11T10:10:41.091Z,99.90
2022-10-11T10:13:22.229Z,99.90
2022-10-11T10:15:51.718Z,99.90
2022-10-11T10:18:27.236Z,99.90
2022-10-11T10:20:57.298Z,99.90
2022-10-11T10:23:29.651Z,99.90
2022-10-11T10:26:14.968Z,99.90
2022-10-11T10:28:55.157Z,99.90
2022-10-11T10:31:40.269Z,99.90
2022-10-11T10:34:31.548Z,99.90
2022-10-11T10:37:16.117Z,99.90
2022-10-11T10:39:50.097Z,99.90
2022-10-11T10:42:20.342Z,99.90
2022-10-11T10:44:52.652Z,99.90
2022-10-11T10:47:31.417Z,99.90
2022-10-11T10:50:13.016Z,99.90
2022-10-11T10:52:53.589Z,99.90
2022-10-11T10:55:43.279Z,99.90
2022-10-11T10:58:19.102Z,99.90
2022-10-11T11:00:52.283Z,99.90
2022-10-11T11:03:43.634Z,99.90
2022-10-11T11:06:36.950Z,99.80
2022-10-11T11:09:18.744Z,98.30
2022-10-11T11:11:51.792Z,97.90
2022-10-11T11:14:33.587Z,98.10
2022-10-11T11:17:22.825Z,98.60
2022-10-11T11:20:26.989Z,98.80
2022-10-11T11:23:02.774Z,98.60
2022-10-11T11:26:00.703Z,98.60
2022-10-11T11:29:16.847Z,97.70
2022-10-11T11:31:56.498Z,96.50
2022-10-11T11:34:33.543Z,96.20
2022-10-11T11:37:04.608Z,96.00
2022-10-11T11:39:44.871Z,96.00
2022-10-11T11:42:23.651Z,95.60
2022-10-11T11:44:51.835Z,95.50
2022-10-11T11:47:33.848Z,95.20
2022-10-11T11:50:22.534Z,94.80
2022-10-11T11:53:13.514Z,94.50
2022-10-11T11:56:00.389Z,93.70
2022-10-11T11:58:46.092Z,93.70
2022-10-11T12:01:35.439Z,93.60
2022-10-11T12:04:12.881Z,93.40
2022-10-11T12:06:47.914Z,93.30
2022-10-11T12:09:27.454Z,93.60
2022-10-11T12:11:59.258Z,93.50
2022-10-11T12:14:34.277Z,93.50
2022-10-11T12:17:20.398Z,93.80
2022-10-11T12:20:16.364Z,93.80
2022-10-11T12:23:00.466Z,94.20
2022-10-11T12:25:27.306Z,94.10
2022-10-11T12:27:56.613Z,93.60
2022-10-11T12:30:48.662Z,93.90
2022-10-11T12:33:25.767Z,94.00
2022-10-11T12:35:55.491Z,93.30
2022-10-11T12:38:26.406Z,93.20
2022-10-11T12:41:00.607Z,93.30
2022-10-11T12:43:31.105Z,93.30
2022-10-11T12:46:19.182Z,92.90
2022-10-11T12:48:54.438Z,92.70
2022-10-11T12:51:36.754Z,92.50
2022-10-11T12:54:37.295Z,92.90
2022-10-11T12:57:28.129Z,92.90
2022-10-11T12:59:55.188Z,92.50
2022-10-11T13:02:38.982Z,92.20
2022-10-11T13:05:28.523Z,92.50
2022-10-11T13:07:58.561Z,92.50
2022-10-11T13:10:30.719Z,92.10
2022-10-11T13:13:04.229Z,92.20
2022-10-11T13:15:31.438Z,92.50
2022-10-11T13:18:00.678Z,92.70
2022-10-11T13:20:37.459Z,92.20
2022-10-11T13:23:28.998Z,91.20
2022-10-11T13:25:56.594Z,91.10
2022-10-11T13:28:23.989Z,91.00
2022-10-11T13:30:55.304Z,91.10
2022-10-11T13:33:32.072Z,91.00
2022-10-11T13:36:00.552Z,91.20
2022-10-11T13:38:30.789Z,91.40
2022-10-11T13:41:00.247Z,91.10
2022-10-11T13:43:29.799Z,90.70
2022-10-11T13:45:59.084Z,90.70
2022-10-11T13:48:31.743Z,90.70
2022-10-11T13:51:28.160Z,90.40
2022-10-11T13:54:00.401Z,90.60
2022-10-11T13:56:29.184Z,90.50
2022-10-11T13:58:56.707Z,90.50
2022-10-11T14:01:35.170Z,90.70
2022-10-11T14:04:09.089Z,90.60
2022-10-11T14:06:47.379Z,90.70
2022-10-11T14:09:24.002Z,90.50
2022-10-11T14:11:50.953Z,90.60
2022-10-11T14:14:33.053Z,90.50
2022-10-11T14:17:32.357Z,90.30
2022-10-11T14:20:32.281Z,90.00
2022-10-11T14:23:00.218Z,90.30
2022-10-11T14:25:27.099Z,90.10
2022-10-11T14:27:54.677Z,90.40
2022-10-11T14:30:26.454Z,90.10
2022-10-11T14:32:56.662Z,89.90
2022-10-11T14:35:29.107Z,90.00
2022-10-11T14:37:56.040Z,90.10
2022-10-11T14:40:31.605Z,90.20
2022-10-11T14:42:58.569Z,90.20
2022-10-11T14:45:25.884Z,89.90
2022-10-11T14:47:52.673Z,89.30
2022-10-11T14:50:23.099Z,89.50
2022-10-11T14:52:49.948Z,89.60
2022-10-11T14:55:16.830Z,90.40
2022-10-11T14:57:43.683Z,90.90
2022-10-11T15:00:20.406Z,91.30
2022-10-11T15:02:47.413Z,91.40
2022-10-11T15:05:14.385Z,91.60
2022-10-11T15:07:41.186Z,91.70
2022-10-11T15:10:19.848Z,91.90
2022-10-11T15:12:47.084Z,92.10
2022-10-11T15:15:19.795Z,92.00
2022-10-11T15:17:49.200Z,91.70
2022-10-11T15:20:32.836Z,91.90
2022-10-11T15:23:00.957Z,92.10
2022-10-11T15:25:29.611Z,92.20
2022-10-11T15:27:57.667Z,92.20
2022-10-11T15:30:27.964Z,92.30
2022-10-11T15:32:55.499Z,92.40
2022-10-11T15:35:23.451Z,92.50
2022-10-11T15:37:55.400Z,92.50
2022-10-11T15:40:23.866Z,92.50
2022-10-11T15:42:51.395Z,92.60
2022-10-11T15:45:19.518Z,92.90
2022-10-11T15:47:46.942Z,92.80
2022-10-11T15:50:15.347Z,92.80
2022-10-11T15:52:42.187Z,92.90
2022-10-11T15:55:09.043Z,93.00
2022-10-11T15:57:35.863Z,93.00
2022-10-11T16:00:03.106Z,93.00
2022-10-11T16:02:29.884Z,93.10
2022-10-11T16:04:56.670Z,93.30
2022-10-11T16:07:23.436Z,93.70
2022-10-11T16:09:50.292Z,94.20
2022-10-11T16:12:17.118Z,94.40
2022-10-11T16:14:47.195Z,94.90
2022-10-11T16:17:14.270Z,95.00
2022-10-11T16:19:41.117Z,94.90
2022-10-11T16:22:07.972Z,95.00
2022-10-11T16:24:34.788Z,95.30
2022-10-11T16:27:01.676Z,95.50
2022-10-11T16:29:28.653Z,95.80
2022-10-11T16:31:55.475Z,95.80
2022-10-11T16:34:22.336Z,95.90
2022-10-11T16:36:49.171Z,95.90
2022-10-11T16:39:18.418Z,96.10
2022-10-11T16:41:45.988Z,96.00
2022-10-11T16:44:18.131Z,95.90
2022-10-11T16:46:48.319Z,95.70
2022-10-11T16:49:17.021Z,95.60
2022-10-11T16:51:44.158Z,95.40
2022-10-11T16:54:10.948Z,95.40
2022-10-11T16:56:40.128Z,95.30
2022-10-11T16:59:08.464Z,95.50
2022-10-11T17:01:35.335Z,95.80
2022-10-11T17:04:02.134Z,96.00
2022-10-11T17:06:28.940Z,96.10
2022-10-11T17:08:55.740Z,96.00
2022-10-11T17:11:22.730Z,96.10
2022-10-11T17:13:51.642Z,96.40
2022-10-11T17:16:18.487Z,96.50
2022-10-11T17:18:45.778Z,96.30
2022-10-11T17:21:15.380Z,96.40
2022-10-11T17:23:42.306Z,96.50
2022-10-11T17:26:14.843Z,96.60
2022-10-11T17:28:41.950Z,96.70
2022-10-11T17:31:09.507Z,96.70
2022-10-11T17:33:36.817Z,96.80
2022-10-11T17:36:14.547Z,96.70
2022-10-11T17:38:41.488Z,96.70
2022-10-11T17:41:09.378Z,96.80
2022-10-11T17:43:36.383Z,96.90
2022-10-11T17:46:05.994Z,97.00
2022-10-11T17:48:36.560Z,97.10
2022-10-11T17:51:12.033Z,97.00
2022-10-11T17:53:39.160Z,96.90
2022-10-11T17:56:12.080Z,96.90
2022-10-11T17:58:39.146Z,97.00
2022-10-11T18:01:12.015Z,97.10
2022-10-11T18:03:39.355Z,97.00
2022-10-11T18:06:14.805Z,97.00
2022-10-11T18:08:41.953Z,97.00
2022-10-11T18:11:13.695Z,96.90
2022-10-11T18:13:45.728Z,96.80
2022-10-11T18:16:15.507Z,96.80
2022-10-11T18:18:43.407Z,96.80
2022-10-11T18:21:11.000Z,96.80
2022-10-11T18:23:38.362Z,96.80
2022-10-11T18:26:10.333Z,96.70
2022-10-11T18:28:37.425Z,96.70
2022-10-11T18:31:12.640Z,96.70
2022-10-11T18:33:40.671Z,96.80
2022-10-11T18:36:09.260Z,96.80
2022-10-11T18:38:38.076Z,96.90
2022-10-11T18:41:06.917Z,96.80
2022-10-11T18:43:34.523Z,96.80
2022-10-11T18:46:13.361Z,96.90
2022-10-11T18:48:42.117Z,96.90
2022-10-11T18:51:18.277Z,96.80
2022-10-11T18:53:45.926Z,96.80
2022-10-11T18:56:13.851Z,96.80
2022-10-11T18:58:41.371Z,96.90
2022-10-11T19:01:16.365Z,96.90
2022-10-11T19:03:44.368Z,96.90
2022-10-11T19:06:17.605Z,96.90
2022-10-11T19:08:46.165Z,97.00
2022-10-11T19:11:14.304Z,97.00
2022-10-11T19:13:41.654Z,97.10
2022-10-11T19:16:14.629Z,97.20
2022-10-11T19:18:44.254Z,97.20
2022-10-11T19:21:13.385Z,97.10
2022-10-11T19:23:45.033Z,97.20
2022-10-11T19:26:21.427Z,97.20
2022-10-11T19:28:53.732Z,97.10
2022-10-11T19:31:20.734Z,97.10
2022-10-11T19:33:49.581Z,97.30
2022-10-11T19:36:17.467Z,97.40
2022-10-11T19:38:46.927Z,97.30
2022-10-11T19:41:14.701Z,97.20
2022-10-11T19:43:41.850Z,97.30
2022-10-11T19:46:13.261Z,97.30
2022-10-11T19:48:40.159Z,97.20
2022-10-11T19:51:09.987Z,97.20
2022-10-11T19:53:37.360Z,97.30
2022-10-11T19:56:06.855Z,97.20
2022-10-11T19:58:33.987Z,97.20
2022-10-11T20:01:06.482Z,97.20
2022-10-11T20:03:34.077Z,97.30
2022-10-11T20:06:02.385Z,97.20
2022-10-11T20:08:31.343Z,97.30
2022-10-11T20:11:00.063Z,97.20
2022-10-11T20:13:32.514Z,97.20
2022-10-11T20:16:10.387Z,97.20
2022-10-11T20:18:38.371Z,97.20
2022-10-11T20:21:12.162Z,97.20
2022-10-11T20:26:11.024Z,97.30
2022-10-11T20:28:40.470Z,97.30
2022-10-11T20:31:14.940Z,97.30
2022-10-11T20:33:42.206Z,97.30
2022-10-11T20:36:12.095Z,97.40
2022-10-11T20:38:40.807Z,97.50
2022-10-11T20:41:09.375Z,97.50
2022-10-11T20:43:36.693Z,97.40
2022-10-11T20:46:11.815Z,97.40
2022-10-11T20:48:40.731Z,97.60
2022-10-11T20:51:11.097Z,97.40
2022-10-11T20:53:38.686Z,97.60
2022-10-11T20:56:09.962Z,97.60
2022-10-11T20:58:36.706Z,97.60
2022-10-11T21:01:14.178Z,97.60
2022-10-11T21:03:42.301Z,97.60
2022-10-11T21:06:09.177Z,97.50
2022-10-11T21:08:37.096Z,97.50
2022-10-11T21:11:04.630Z,97.50
2022-10-11T21:13:31.804Z,97.50
2022-10-11T21:16:08.024Z,97.50
2022-10-11T21:18:34.911Z,97.40
2022-10-11T21:21:10.290Z,97.50
2022-10-11T21:23:37.134Z,97.50
2022-10-11T21:26:06.416Z,97.40
2022-10-11T21:28:33.997Z,97.80
2022-10-11T21:31:08.993Z,97.50
2022-10-11T21:33:36.549Z,97.60
2022-10-11T21:36:08.521Z,97.50
2022-10-11T21:38:36.139Z,97.50
2022-10-11T21:41:08.145Z,97.50
2022-10-11T21:43:36.162Z,97.50
2022-10-11T21:46:32.482Z,97.60
2022-10-11T21:49:08.869Z,97.60
2022-10-11T21:51:35.691Z,97.50
2022-10-11T21:54:02.505Z,97.50
2022-10-11T21:56:29.675Z,97.60
2022-10-11T21:58:56.669Z,97.50
2022-10-11T22:01:23.973Z,97.60
2022-10-11T22:03:52.675Z,97.60
2022-10-11T22:06:20.004Z,97.60
2022-10-11T22:08:47.051Z,97.60
2022-10-11T22:11:13.845Z,97.60
2022-10-11T22:13:41.855Z,97.60
2022-10-11T22:16:11.760Z,97.50
2022-10-11T22:18:39.200Z,97.50
2022-10-11T22:21:08.059Z,97.60
2022-10-11T22:23:35.248Z,97.70
2022-10-11T22:26:06.911Z,97.60
2022-10-11T22:28:34.807Z,97.70
2022-10-11T22:31:02.116Z,97.70
2022-10-11T22:33:29.058Z,97.70
2022-10-11T22:36:00.404Z,97.60
2022-10-11T22:38:28.124Z,97.70
2022-10-11T22:40:58.001Z,97.70
2022-10-11T22:43:25.008Z,97.70
2022-10-11T22:45:51.885Z,97.80
2022-10-11T22:48:18.998Z,97.70
2022-10-11T22:50:46.113Z,97.70
2022-10-11T22:53:14.102Z,97.70
2022-10-11T22:55:41.291Z,97.70
2022-10-11T22:58:08.277Z,97.70
2022-10-11T23:00:35.607Z,97.70
2022-10-11T23:03:02.455Z,97.70
2022-10-11T23:05:29.402Z,97.70
2022-10-11T23:07:56.252Z,97.70
2022-10-11T23:10:23.170Z,97.70
2022-10-11T23:12:50.127Z,97.70
2022-10-11T23:15:17.077Z,97.70
2022-10-11T23:17:43.984Z,97.70
2022-10-11T23:20:11.449Z,97.60
2022-10-11T23:22:38.429Z,97.70
2022-10-11T23:25:05.854Z,97.70
2022-10-11T23:27:33.092Z,97.70
2022-10-11T23:29:59.941Z,97.70
2022-10-11T23:32:26.804Z,97.70
2022-10-11T23:34:53.782Z,97.70
2022-10-11T23:37:20.909Z,97.80
2022-10-11T23:39:47.859Z,97.80
2022-10-11T23:42:14.723Z,97.80
2022-10-11T23:44:41.545Z,97.80
2022-10-11T23:47:08.375Z,97.90
2022-10-11T23:49:35.190Z,97.90
2022-10-11T23:52:05.011Z,97.80
2022-10-11T23:54:31.899Z,97.90
2022-10-11T23:56:58.710Z,98.00
2022-10-11T23:59:25.573Z,98.00
